Time;durP1;ratioP1;P1;durP2;ratioP2;P2;SDS_P1;SDS_P2;PMS_P1;PMS_P2;Temp;Humidity;BMP_temperature;BMP_pressure;BME280_temperature;BME280_humidity;BME280_pressure;Samples;Min_cycle;Max_cycle;Signal;HPM_P1;HPM_P2
2023/03/16 00:01:02;;;;;;;1.77;1.17;;;4.50;99.90;;;;;;4973724;28;20218;-62
2023/03/16 00:03:30;;;;;;;1.90;0.95;;;4.60;99.90;;;;;;4979657;28;20246;-62
2023/03/16 00:05:58;;;;;;;3.47;1.50;;;4.60;99.90;;;;;;4983561;28;20267;-63
2023/03/16 00:08:26;;;;;;;1.33;1.10;;;4.60;99.90;;;;;;4981872;28;20268;-62
2023/03/16 00:10:54;;;;;;;0.95;0.85;;;4.50;99.90;;;;;;4982333;28;20229;-63
2023/03/16 00:13:24;;;;;;;0.80;0.70;;;4.20;99.90;;;;;;4984654;28;20217;-62
2023/03/16 00:15:53;;;;;;;2.38;1.30;;;4.20;99.90;;;;;;4981969;28;20235;-63
2023/03/16 00:18:26;;;;;;;2.97;0.98;;;4.20;99.90;;;;;;4984914;28;20233;-63
2023/03/16 00:20:55;;;;;;;0.63;0.60;;;4.20;99.90;;;;;;4984205;28;20206;-63
2023/03/16 00:23:26;;;;;;;2.08;1.02;;;4.20;99.90;;;;;;4981506;28;20222;-62
2023/03/16 00:25:55;;;;;;;0.90;0.70;;;4.20;99.90;;;;;;4982088;28;20594;-62
2023/03/16 00:28:25;;;;;;;0.80;0.70;;;4.20;99.90;;;;;;4980033;28;20227;-62
2023/03/16 00:30:57;;;;;;;0.60;0.55;;;4.20;99.90;;;;;;4971466;28;20242;-62
2023/03/16 00:33:25;;;;;;;1.05;0.95;;;4.10;99.90;;;;;;4981382;28;20223;-62
2023/03/16 00:36:02;;;;;;;0.70;0.60;;;4.00;99.90;;;;;;4981614;28;20245;-62
2023/03/16 00:38:34;;;;;;;1.48;1.00;;;3.80;99.90;;;;;;4984801;28;20245;-62
2023/03/16 00:41:02;;;;;;;0.93;0.85;;;3.80;99.90;;;;;;4982577;28;20208;-63
2023/03/16 00:43:39;;;;;;;0.80;0.70;;;3.70;99.90;;;;;;4980532;28;20685;-63
2023/03/16 00:46:08;;;;;;;1.30;0.80;;;3.60;99.90;;;;;;4981714;28;20215;-63
2023/03/16 00:48:38;;;;;;;0.70;0.70;;;3.50;99.90;;;;;;4984540;28;20225;-64
2023/03/16 00:51:08;;;;;;;5.43;1.00;;;3.70;99.90;;;;;;4981956;28;20232;-64
2023/03/16 00:53:36;;;;;;;1.45;1.20;;;3.40;99.90;;;;;;4981764;28;20759;-63
2023/03/16 00:56:05;;;;;;;0.90;0.75;;;3.10;99.90;;;;;;4982075;28;20216;-63
2023/03/16 00:58:36;;;;;;;1.65;0.90;;;3.10;99.90;;;;;;4980592;28;20234;-63
2023/03/16 01:01:06;;;;;;;1.20;1.10;;;3.20;99.90;;;;;;4972933;28;20206;-63
2023/03/16 01:03:35;;;;;;;1.75;1.10;;;3.40;99.90;;;;;;4982046;28;20563;-63
2023/03/16 01:06:05;;;;;;;1.27;1.17;;;3.50;99.90;;;;;;4982323;28;20224;-64
2023/03/16 01:08:33;;;;;;;1.05;0.80;;;3.20;99.90;;;;;;4980803;28;20244;-63
2023/03/16 01:11:04;;;;;;;0.95;0.65;;;3.40;99.90;;;;;;4981823;28;20217;-64
2023/03/16 01:13:32;;;;;;;1.85;1.02;;;3.40;99.90;;;;;;4984056;28;20235;-63
2023/03/16 01:16:02;;;;;;;1.00;0.80;;;3.40;99.90;;;;;;4982642;28;20210;-64
2023/03/16 01:18:33;;;;;;;0.80;0.68;;;3.50;99.90;;;;;;4980677;28;20374;-63
2023/03/16 01:21:02;;;;;;;0.82;0.80;;;3.60;99.90;;;;;;4983907;28;20211;-64
2023/03/16 01:23:30;;;;;;;1.33;0.90;;;3.70;99.90;;;;;;4980416;28;20210;-64
2023/03/16 01:25:59;;;;;;;0.80;0.70;;;3.80;99.90;;;;;;4981069;28;20314;-63
2023/03/16 01:28:29;;;;;;;1.38;1.27;;;3.70;99.90;;;;;;4979119;28;20251;-62
2023/03/16 01:31:02;;;;;;;1.15;1.05;;;3.60;99.90;;;;;;4972803;28;20266;-63
2023/03/16 01:33:30;;;;;;;0.80;0.77;;;3.60;99.90;;;;;;4983620;28;20683;-65
2023/03/16 01:36:00;;;;;;;1.20;0.75;;;3.60;99.90;;;;;;4982811;28;20711;-62
2023/03/16 01:38:28;;;;;;;1.17;1.08;;;3.60;99.90;;;;;;4977996;28;20226;-62
2023/03/16 01:40:56;;;;;;;0.70;0.70;;;3.70;99.90;;;;;;4980603;28;20234;-62
2023/03/16 01:43:27;;;;;;;1.58;1.10;;;3.80;99.90;;;;;;4978151;28;20289;-63
2023/03/16 01:46:18;;;;;;;1.27;1.10;;;3.90;99.90;;;;;;4983177;28;20210;-63
2023/03/16 01:48:54;;;;;;;2.40;1.70;;;3.90;99.90;;;;;;4972964;28;20723;-62
2023/03/16 01:51:25;;;;;;;1.50;1.13;;;4.00;99.90;;;;;;4980147;28;20281;-63
2023/03/16 01:53:57;;;;;;;3.33;1.00;;;4.00;99.90;;;;;;4978946;28;20591;-66
2023/03/16 01:56:29;;;;;;;4.80;1.77;;;4.00;99.90;;;;;;4987364;28;20618;-63
2023/03/16 01:59:00;;;;;;;1.25;1.15;;;3.70;99.90;;;;;;4978800;28;20280;-63
2023/03/16 02:01:30;;;;;;;1.27;0.90;;;3.70;99.90;;;;;;4980825;28;20220;-63
2023/03/16 02:04:06;;;;;;;0.80;0.60;;;3.70;99.90;;;;;;4986861;28;20215;-63
2023/03/16 02:06:35;;;;;;;2.17;1.10;;;3.50;99.90;;;;;;4984243;28;20258;-63
2023/03/16 02:09:04;;;;;;;0.80;0.77;;;3.50;99.90;;;;;;4984946;28;20232;-63
2023/03/16 02:11:33;;;;;;;1.48;1.38;;;3.20;99.90;;;;;;4984897;28;20207;-62
2023/03/16 02:14:08;;;;;;;1.73;1.13;;;2.90;99.90;;;;;;4986280;28;20213;-62
2023/03/16 02:16:37;;;;;;;1.17;1.08;;;2.30;99.90;;;;;;4984105;28;20250;-63
2023/03/16 02:19:11;;;;;;;2.05;1.27;;;2.10;99.90;;;;;;4984997;28;20725;-63
2023/03/16 02:21:47;;;;;;;2.45;1.90;;;2.00;99.90;;;;;;4987099;28;20248;-62
2023/03/16 02:24:15;;;;;;;2.17;1.30;;;1.60;99.90;;;;;;4984485;28;20310;-62
2023/03/16 02:26:47;;;;;;;2.45;1.35;;;1.40;99.90;;;;;;4983654;28;20230;-63
2023/03/16 02:29:24;;;;;;;1.10;0.90;;;1.40;99.90;;;;;;4986624;28;20302;-63
2023/03/16 02:31:55;;;;;;;1.25;1.05;;;1.40;99.90;;;;;;4975535;28;20216;-63
2023/03/16 02:34:24;;;;;;;1.70;1.10;;;1.50;99.90;;;;;;4983575;28;20203;-62
2023/03/16 02:36:53;;;;;;;1.33;1.23;;;1.30;99.90;;;;;;4983446;28;20207;-63
2023/03/16 02:39:22;;;;;;;1.98;0.93;;;1.20;99.90;;;;;;4983469;28;20231;-63
2023/03/16 02:41:50;;;;;;;0.95;0.85;;;1.20;99.90;;;;;;4983583;28;20213;-62
2023/03/16 02:44:24;;;;;;;1.25;1.00;;;1.50;99.90;;;;;;4986179;28;20244;-63
2023/03/16 02:46:54;;;;;;;1.92;0.93;;;1.40;99.90;;;;;;4981147;28;20202;-63
2023/03/16 02:49:27;;;;;;;1.75;1.35;;;1.30;99.90;;;;;;4983336;28;20780;-63
2023/03/16 02:51:56;;;;;;;2.00;1.17;;;1.20;99.90;;;;;;4983298;28;20214;-63
2023/03/16 02:54:24;;;;;;;2.05;1.83;;;1.20;99.90;;;;;;4978647;28;20252;-63
2023/03/16 02:56:52;;;;;;;2.28;2.00;;;1.40;99.90;;;;;;4986358;28;20580;-62
2023/03/16 02:59:19;;;;;;;2.10;1.63;;;1.50;99.90;;;;;;4975144;28;20584;-63
2023/03/16 03:01:47;;;;;;;2.00;1.20;;;1.50;99.90;;;;;;4978090;28;20396;-63
2023/03/16 03:04:17;;;;;;;2.95;1.50;;;1.50;99.90;;;;;;4983858;28;20203;-63
2023/03/16 03:06:45;;;;;;;1.92;1.83;;;1.60;99.90;;;;;;4985885;28;20217;-64
2023/03/16 03:09:13;;;;;;;1.30;1.20;;;1.70;99.90;;;;;;4984207;28;20227;-63
2023/03/16 03:11:41;;;;;;;2.17;1.98;;;1.70;99.90;;;;;;4983008;28;20233;-63
2023/03/16 03:14:09;;;;;;;1.65;1.55;;;1.60;99.90;;;;;;4984101;28;20231;-64
2023/03/16 03:16:37;;;;;;;1.77;1.67;;;1.50;99.90;;;;;;4986160;28;20726;-64
2023/03/16 03:19:05;;;;;;;2.78;2.15;;;1.70;99.90;;;;;;4979183;28;20302;-62
2023/03/16 03:21:34;;;;;;;1.73;1.63;;;2.00;99.90;;;;;;4986155;28;20211;-63
2023/03/16 03:24:02;;;;;;;1.60;1.50;;;2.00;99.90;;;;;;4985138;28;20239;-63
2023/03/16 03:26:30;;;;;;;2.20;1.88;;;1.70;99.90;;;;;;4982793;28;20214;-63
2023/03/16 03:28:58;;;;;;;2.35;1.58;;;1.40;99.90;;;;;;4980977;28;20232;-62
2023/03/16 03:31:26;;;;;;;2.95;1.92;;;1.30;99.90;;;;;;4966642;28;20209;-62
2023/03/16 03:33:53;;;;;;;1.67;1.40;;;1.20;99.90;;;;;;4982540;28;20580;-62
2023/03/16 03:36:21;;;;;;;2.35;2.03;;;1.30;99.90;;;;;;4982280;28;20212;-63
2023/03/16 03:38:53;;;;;;;3.15;1.80;;;1.10;99.90;;;;;;4985463;28;20233;-63
2023/03/16 03:41:22;;;;;;;2.10;1.80;;;1.30;99.90;;;;;;4982767;28;20202;-63
2023/03/16 03:43:50;;;;;;;1.90;1.65;;;1.40;99.90;;;;;;4982372;28;20287;-63
2023/03/16 03:46:17;;;;;;;2.28;1.95;;;1.40;99.90;;;;;;4984601;28;20219;-62
2023/03/16 03:48:45;;;;;;;2.30;2.10;;;1.30;99.90;;;;;;4985650;28;20230;-63
2023/03/16 03:51:13;;;;;;;1.38;1.27;;;1.20;99.90;;;;;;4983505;28;20296;-63
2023/03/16 03:53:41;;;;;;;1.70;1.55;;;1.10;99.90;;;;;;4977497;28;20264;-63
2023/03/16 03:56:10;;;;;;;1.30;1.20;;;1.20;99.90;;;;;;4984236;28;20219;-63
2023/03/16 03:58:38;;;;;;;3.20;2.22;;;1.30;99.90;;;;;;4980178;28;20242;-63
2023/03/16 04:01:06;;;;;;;2.17;1.60;;;1.40;99.90;;;;;;4973825;28;20293;-63
2023/03/16 04:03:34;;;;;;;1.48;1.13;;;1.40;99.90;;;;;;4981823;28;20245;-63
2023/03/16 04:06:02;;;;;;;2.33;2.17;;;1.40;99.90;;;;;;4982169;28;20652;-63
2023/03/16 04:08:30;;;;;;;2.38;1.73;;;1.40;99.90;;;;;;4985086;28;20225;-63
2023/03/16 04:10:58;;;;;;;1.65;1.33;;;1.50;99.90;;;;;;4981930;28;20219;-62
2023/03/16 04:13:27;;;;;;;1.45;1.35;;;1.60;99.90;;;;;;4981612;28;20227;-63
2023/03/16 04:15:56;;;;;;;4.75;2.80;;;1.70;99.90;;;;;;4981600;28;20218;-63
2023/03/16 04:18:25;;;;;;;1.25;1.15;;;1.80;99.90;;;;;;5004323;23;20506;-68
2023/03/16 04:20:53;;;;;;;2.17;1.98;;;1.80;99.90;;;;;;4981326;28;20649;-71
2023/03/16 04:23:21;;;;;;;1.40;1.30;;;1.90;99.90;;;;;;4983387;28;20293;-71
2023/03/16 04:25:49;;;;;;;2.30;1.75;;;1.60;99.90;;;;;;4985029;28;20576;-70
2023/03/16 04:28:17;;;;;;;2.25;1.77;;;1.40;99.90;;;;;;4976543;28;20305;-71
2023/03/16 04:30:46;;;;;;;2.40;1.80;;;1.40;99.90;;;;;;4972100;28;20735;-71
2023/03/16 04:33:14;;;;;;;2.38;2.10;;;1.40;99.90;;;;;;4981145;28;20226;-70
2023/03/16 04:35:44;;;;;;;2.25;2.05;;;1.40;99.90;;;;;;4981492;28;20290;-70
2023/03/16 04:38:12;;;;;;;2.00;1.70;;;1.20;99.90;;;;;;4982377;28;20206;-70
2023/03/16 04:40:40;;;;;;;6.50;2.30;;;1.40;99.90;;;;;;4984603;28;20268;-71
2023/03/16 04:43:08;;;;;;;2.10;1.75;;;1.60;99.90;;;;;;4976355;28;20228;-71
2023/03/16 04:45:36;;;;;;;2.40;1.55;;;1.80;99.90;;;;;;4980070;28;20229;-71
2023/03/16 04:48:06;;;;;;;2.75;2.05;;;1.80;99.90;;;;;;4988779;28;20228;-71
2023/03/16 04:50:34;;;;;;;1.60;1.45;;;1.60;99.90;;;;;;4974188;28;20210;-73
2023/03/16 04:53:03;;;;;;;2.03;1.83;;;1.40;99.90;;;;;;4980673;28;20211;-73
2023/03/16 04:55:31;;;;;;;1.75;1.40;;;1.30;99.90;;;;;;4981122;28;20234;-70
2023/03/16 04:57:59;;;;;;;1.73;1.63;;;1.40;99.90;;;;;;4978912;28;20636;-71
2023/03/16 05:00:27;;;;;;;2.10;1.92;;;1.40;99.90;;;;;;4966544;28;20228;-71
2023/03/16 05:02:55;;;;;;;2.22;2.03;;;1.40;99.90;;;;;;4970792;28;20202;-71
2023/03/16 05:05:24;;;;;;;1.55;1.20;;;1.30;99.90;;;;;;4972581;28;20217;-70
2023/03/16 05:07:52;;;;;;;1.42;1.10;;;1.40;99.90;;;;;;4972552;28;20214;-71
2023/03/16 05:10:20;;;;;;;1.30;1.17;;;2.00;99.90;;;;;;4972213;28;20234;-71
2023/03/16 05:12:48;;;;;;;1.80;1.60;;;2.30;99.90;;;;;;4972544;28;20274;-70
2023/03/16 05:15:16;;;;;;;1.63;1.45;;;2.60;99.90;;;;;;4972391;28;20313;-70
2023/03/16 05:17:45;;;;;;;3.33;1.77;;;2.50;99.90;;;;;;4971572;28;20298;-70
2023/03/16 05:20:14;;;;;;;1.90;1.50;;;2.30;99.90;;;;;;4969836;28;20325;-75
2023/03/16 05:22:47;;;;;;;1.70;1.35;;;2.50;99.90;;;;;;4972596;28;20295;-70
2023/03/16 05:25:15;;;;;;;2.28;2.08;;;2.80;99.90;;;;;;4972320;28;20212;-71
2023/03/16 05:27:44;;;;;;;1.38;1.27;;;3.00;99.90;;;;;;4971550;28;20226;-70
2023/03/16 05:30:15;;;;;;;2.65;1.58;;;2.80;99.90;;;;;;4971029;28;20235;-70
2023/03/16 05:32:43;;;;;;;2.28;1.90;;;2.40;99.90;;;;;;4972390;28;20204;-70
2023/03/16 05:35:12;;;;;;;3.00;2.28;;;2.20;99.90;;;;;;4976916;28;20228;-71
2023/03/16 05:37:41;;;;;;;1.77;1.67;;;2.10;99.90;;;;;;4983830;28;20211;-70
2023/03/16 05:40:15;;;;;;;3.33;1.90;;;2.10;99.90;;;;;;4983012;28;20245;-70
2023/03/16 05:42:45;;;;;;;3.95;1.40;;;2.30;99.90;;;;;;4980083;28;20208;-69
2023/03/16 05:45:14;;;;;;;3.20;1.95;;;2.40;99.90;;;;;;4981171;28;20272;-70
2023/03/16 05:47:43;;;;;;;2.03;1.40;;;2.40;99.90;;;;;;4977007;28;20216;-71
2023/03/16 05:50:13;;;;;;;1.48;1.30;;;2.50;99.90;;;;;;4967819;28;20710;-70
2023/03/16 05:52:41;;;;;;;1.45;1.25;;;2.70;99.90;;;;;;4974048;28;20695;-72
2023/03/16 05:55:13;;;;;;;1.67;1.52;;;2.80;99.90;;;;;;4979527;28;20894;-68
2023/03/16 05:57:41;;;;;;;1.33;1.20;;;2.70;99.90;;;;;;4983177;28;20226;-71
2023/03/16 06:00:14;;;;;;;1.33;1.23;;;2.60;99.90;;;;;;4974126;28;20232;-69
2023/03/16 06:02:42;;;;;;;1.70;1.60;;;2.40;99.90;;;;;;4975920;28;20294;-71
2023/03/16 06:05:10;;;;;;;1.40;1.30;;;2.00;99.90;;;;;;4982309;28;20206;-72
2023/03/16 06:07:38;;;;;;;2.65;1.48;;;2.30;99.90;;;;;;4972297;28;20558;-71
2023/03/16 06:10:07;;;;;;;2.25;1.92;;;2.30;99.90;;;;;;4977902;28;20314;-72
2023/03/16 06:12:36;;;;;;;2.60;2.10;;;2.00;99.90;;;;;;4982805;28;20299;-71
2023/03/16 06:15:06;;;;;;;2.97;1.65;;;2.00;99.90;;;;;;4982830;28;20308;-71
2023/03/16 06:17:34;;;;;;;3.60;2.08;;;2.10;99.90;;;;;;4979757;28;20295;-71
2023/03/16 06:20:10;;;;;;;2.80;1.67;;;2.00;99.90;;;;;;4979020;28;20235;-71
2023/03/16 06:22:38;;;;;;;1.90;1.67;;;1.90;99.90;;;;;;4979611;28;20257;-69
2023/03/16 06:25:08;;;;;;;2.00;1.70;;;1.90;99.90;;;;;;4964410;28;20311;-66
2023/03/16 06:27:38;;;;;;;1.75;1.52;;;2.00;99.90;;;;;;4973349;28;20211;-69
2023/03/16 06:30:08;;;;;;;1.33;1.02;;;2.10;99.90;;;;;;4975391;28;20315;-68
2023/03/16 06:32:36;;;;;;;2.13;1.90;;;2.20;99.90;;;;;;4975110;28;20237;-69
2023/03/16 06:35:05;;;;;;;1.77;1.67;;;2.10;99.90;;;;;;4975404;28;20255;-69
2023/03/16 06:37:33;;;;;;;2.08;1.60;;;2.30;99.90;;;;;;4979352;28;20306;-68
2023/03/16 06:40:01;;;;;;;2.05;1.60;;;2.60;99.90;;;;;;4988022;28;20231;-69
2023/03/16 06:42:29;;;;;;;3.35;1.92;;;2.50;99.90;;;;;;4975139;28;20292;-69
2023/03/16 06:44:58;;;;;;;2.30;1.60;;;2.40;99.90;;;;;;4970276;28;20578;-69
2023/03/16 06:47:26;;;;;;;1.30;1.20;;;2.40;99.90;;;;;;4982458;28;20208;-71
2023/03/16 06:49:54;;;;;;;1.90;1.45;;;2.40;99.90;;;;;;4982566;28;20309;-69
2023/03/16 06:52:22;;;;;;;2.30;2.00;;;2.40;99.90;;;;;;4984165;28;20671;-69
2023/03/16 06:54:50;;;;;;;1.50;1.40;;;2.40;99.90;;;;;;4986267;28;20235;-68
2023/03/16 06:57:18;;;;;;;2.35;2.13;;;2.50;99.90;;;;;;4982456;28;20640;-69
2023/03/16 06:59:46;;;;;;;1.95;1.70;;;2.60;99.90;;;;;;4979327;28;20223;-69
2023/03/16 07:02:15;;;;;;;4.00;2.13;;;2.60;99.90;;;;;;4971281;28;20642;-66
2023/03/16 07:04:43;;;;;;;2.03;1.80;;;2.60;99.90;;;;;;4987136;28;20225;-72
2023/03/16 07:07:11;;;;;;;3.13;2.28;;;2.50;99.90;;;;;;4985800;28;20212;-72
2023/03/16 07:09:40;;;;;;;2.85;1.55;;;2.60;99.90;;;;;;4982293;28;20309;-68
2023/03/16 07:12:09;;;;;;;2.38;2.17;;;2.60;99.90;;;;;;4982274;28;20207;-70
2023/03/16 07:14:37;;;;;;;2.53;2.33;;;2.60;99.90;;;;;;4977169;28;20233;-68
2023/03/16 07:17:05;;;;;;;2.38;2.17;;;2.70;99.90;;;;;;4972907;28;20209;-69
2023/03/16 07:19:34;;;;;;;3.38;1.80;;;2.70;99.90;;;;;;4988807;28;20323;-69
2023/03/16 07:22:02;;;;;;;1.95;1.60;;;2.80;99.90;;;;;;4980856;28;20230;-71
2023/03/16 07:24:31;;;;;;;3.08;2.78;;;2.80;99.90;;;;;;4979377;28;20217;-73
2023/03/16 07:27:00;;;;;;;2.30;1.80;;;2.90;99.90;;;;;;4979843;28;20203;-69
2023/03/16 07:29:28;;;;;;;1.30;1.20;;;3.00;99.90;;;;;;4980466;28;20334;-69
2023/03/16 07:31:56;;;;;;;3.83;2.25;;;3.10;99.90;;;;;;4985832;28;20753;-69
2023/03/16 07:34:24;;;;;;;3.17;1.73;;;3.10;99.90;;;;;;4984046;28;20605;-69
2023/03/16 07:36:53;;;;;;;1.70;1.55;;;3.10;99.90;;;;;;4982505;28;20211;-69
2023/03/16 07:39:21;;;;;;;2.28;1.35;;;3.10;99.90;;;;;;4982895;28;20259;-68
2023/03/16 07:41:50;;;;;;;1.67;1.48;;;3.10;99.90;;;;;;4985742;28;20203;-69
2023/03/16 07:44:18;;;;;;;3.20;2.47;;;3.10;99.90;;;;;;4984796;28;20204;-70
2023/03/16 07:46:46;;;;;;;2.70;2.00;;;3.10;99.90;;;;;;4982327;28;20557;-70
2023/03/16 07:49:15;;;;;;;2.33;1.77;;;3.20;99.90;;;;;;4981967;28;20239;-74
2023/03/16 07:51:43;;;;;;;2.88;2.30;;;3.30;99.90;;;;;;4974024;28;20683;-66
2023/03/16 07:54:12;;;;;;;2.03;1.77;;;3.40;99.90;;;;;;4982131;28;20782;-69
2023/03/16 07:56:41;;;;;;;1.83;1.70;;;3.40;99.90;;;;;;4982034;28;20232;-71
2023/03/16 07:59:16;;;;;;;3.45;1.90;;;3.40;99.90;;;;;;4981512;28;20226;-68
2023/03/16 08:01:47;;;;;;;2.30;1.65;;;3.50;99.90;;;;;;4973929;28;20285;-69
2023/03/16 08:04:15;;;;;;;2.85;1.95;;;3.60;99.90;;;;;;4981601;28;20216;-69
2023/03/16 08:06:43;;;;;;;2.28;2.05;;;3.80;99.90;;;;;;4981979;28;20676;-69
2023/03/16 08:09:13;;;;;;;3.10;2.20;;;3.90;99.90;;;;;;4981616;28;20311;-69
2023/03/16 08:11:41;;;;;;;1.52;1.30;;;4.10;99.90;;;;;;4981385;28;20471;-68
2023/03/16 08:14:09;;;;;;;2.25;1.45;;;4.20;99.90;;;;;;4981644;28;20291;-69
2023/03/16 08:16:37;;;;;;;3.08;2.83;;;4.30;99.90;;;;;;4984371;28;20274;-68
2023/03/16 08:19:05;;;;;;;2.00;1.83;;;4.50;99.90;;;;;;4984433;28;20786;-68
2023/03/16 08:21:33;;;;;;;2.28;1.95;;;4.50;99.90;;;;;;4982116;28;20300;-69
2023/03/16 08:24:05;;;;;;;2.90;2.70;;;4.70;99.90;;;;;;4981532;28;20594;-69
2023/03/16 08:26:35;;;;;;;2.22;2.03;;;4.80;99.90;;;;;;4983596;28;20239;-68
2023/03/16 08:29:06;;;;;;;1.50;1.40;;;5.10;99.90;;;;;;4981812;28;20608;-69
2023/03/16 08:31:34;;;;;;;3.42;2.63;;;5.40;99.90;;;;;;4980793;28;20754;-68
2023/03/16 08:34:02;;;;;;;3.00;2.53;;;5.50;99.90;;;;;;4979363;28;20295;-69
2023/03/16 08:36:30;;;;;;;1.55;1.38;;;5.80;99.90;;;;;;4982532;28;20234;-68
2023/03/16 08:38:59;;;;;;;1.85;1.50;;;5.90;99.90;;;;;;4981382;28;20229;-69
2023/03/16 08:41:36;;;;;;;1.50;1.40;;;5.90;99.90;;;;;;4983348;28;20215;-69
2023/03/16 08:44:06;;;;;;;2.17;1.90;;;6.20;99.90;;;;;;4984420;28;20212;-69
2023/03/16 08:46:35;;;;;;;1.40;1.30;;;6.30;99.90;;;;;;4981941;28;20212;-69
2023/03/16 08:49:03;;;;;;;1.45;1.27;;;6.40;99.90;;;;;;4979180;28;20243;-69
2023/03/16 08:51:31;;;;;;;2.45;2.25;;;6.50;99.90;;;;;;4982064;28;20303;-68
2023/03/16 08:53:59;;;;;;;1.63;1.35;;;6.60;99.90;;;;;;4980799;28;20270;-68
2023/03/16 08:56:27;;;;;;;2.13;1.92;;;6.70;99.90;;;;;;4981950;28;20601;-68
2023/03/16 08:58:57;;;;;;;2.15;1.48;;;6.80;99.90;;;;;;4982769;28;20737;-68
2023/03/16 09:01:25;;;;;;;1.52;1.27;;;6.90;99.90;;;;;;4973669;28;20209;-69
2023/03/16 09:03:53;;;;;;;2.97;1.75;;;7.10;99.90;;;;;;4983351;28;20742;-68
2023/03/16 09:06:22;;;;;;;1.83;1.55;;;7.20;99.90;;;;;;4983498;28;20303;-69
2023/03/16 09:08:50;;;;;;;1.35;0.95;;;7.30;99.90;;;;;;4980646;28;20235;-68
2023/03/16 09:11:21;;;;;;;3.90;1.27;;;7.40;99.90;;;;;;4980567;28;20296;-68
2023/03/16 09:13:48;;;;;;;1.05;0.88;;;7.60;99.90;;;;;;4980598;28;20612;-68
2023/03/16 09:16:24;;;;;;;1.70;1.58;;;7.80;99.90;;;;;;4980572;28;20639;-69
2023/03/16 09:18:52;;;;;;;1.83;1.35;;;7.90;99.90;;;;;;4983648;28;20241;-68
2023/03/16 09:21:20;;;;;;;1.58;1.48;;;7.90;99.90;;;;;;4983252;28;20652;-68
2023/03/16 09:23:48;;;;;;;2.30;1.50;;;8.00;99.90;;;;;;4980493;28;20248;-69
2023/03/16 09:26:16;;;;;;;1.33;1.17;;;8.00;99.90;;;;;;4980579;28;20216;-69
2023/03/16 09:28:45;;;;;;;2.17;1.98;;;8.20;99.90;;;;;;4980522;28;20226;-69
2023/03/16 09:31:17;;;;;;;1.52;1.40;;;8.30;99.90;;;;;;4975767;28;20218;-69
2023/03/16 09:33:47;;;;;;;1.10;0.90;;;8.30;99.90;;;;;;4980226;28;20221;-69
2023/03/16 09:36:16;;;;;;;1.23;1.13;;;8.30;99.90;;;;;;4980437;28;20316;-69
2023/03/16 09:38:44;;;;;;;1.83;1.63;;;8.40;99.90;;;;;;4983128;28;20437;-70
2023/03/16 09:41:27;;;;;;;0.80;0.70;;;8.30;99.90;;;;;;4983106;28;20246;-69
2023/03/16 09:44:04;;;;;;;2.15;1.63;;;8.40;99.90;;;;;;4973646;28;20289;-68
2023/03/16 09:46:37;;;;;;;0.80;0.80;;;8.40;99.90;;;;;;4981861;28;20576;-69
2023/03/16 09:49:06;;;;;;;1.40;1.20;;;8.60;99.90;;;;;;4983443;28;20777;-70
2023/03/16 09:51:42;;;;;;;0.60;0.60;;;8.70;99.90;;;;;;4981564;28;20222;-69
2023/03/16 09:54:20;;;;;;;0.80;0.75;;;8.70;99.90;;;;;;4980298;28;20248;-69
2023/03/16 09:56:50;;;;;;;0.70;0.63;;;8.90;99.90;;;;;;4980130;28;20224;-69
2023/03/16 09:59:18;;;;;;;1.23;0.65;;;9.00;99.90;;;;;;4980031;28;20305;-70
2023/03/16 10:01:59;;;;;;;1.23;0.75;;;9.00;99.90;;;;;;4971578;28;20403;-71
2023/03/16 10:04:40;;;;;;;0.73;0.73;;;9.00;99.90;;;;;;4980622;28;20234;-68
2023/03/16 10:07:26;;;;;;;0.95;0.73;;;9.20;99.90;;;;;;4983323;28;20571;-70
2023/03/16 10:09:57;;;;;;;0.82;0.82;;;9.50;99.90;;;;;;4972983;28;20612;-70
2023/03/16 10:12:30;;;;;;;1.00;0.75;;;9.90;99.90;;;;;;4980033;28;20296;-69
2023/03/16 10:15:04;;;;;;;0.77;0.60;;;10.20;99.90;;;;;;4985737;28;20224;-70
2023/03/16 10:17:40;;;;;;;1.58;0.95;;;10.20;99.90;;;;;;4985358;28;20589;-69
2023/03/16 10:20:16;;;;;;;0.98;0.95;;;10.20;99.90;;;;;;4984206;28;20281;-69
2023/03/16 10:22:46;;;;;;;0.80;0.75;;;10.60;99.90;;;;;;4986410;28;20292;-69
2023/03/16 10:25:22;;;;;;;1.15;1.05;;;11.20;99.90;;;;;;4987143;28;20296;-69
2023/03/16 10:27:50;;;;;;;0.60;0.50;;;11.40;99.90;;;;;;4976074;28;20281;-69
2023/03/16 10:30:24;;;;;;;0.50;0.40;;;11.60;99.90;;;;;;4977957;28;20258;-69
2023/03/16 10:32:53;;;;;;;0.90;0.70;;;11.80;99.90;;;;;;4976395;28;20202;-69
2023/03/16 10:35:34;;;;;;;1.25;0.60;;;12.00;99.90;;;;;;4983570;28;20209;-69
2023/03/16 10:38:11;;;;;;;1.00;0.90;;;12.20;99.90;;;;;;4977495;28;20233;-69
2023/03/16 10:40:40;;;;;;;0.80;0.40;;;12.60;99.90;;;;;;4985237;28;20232;-70
2023/03/16 10:43:14;;;;;;;0.82;0.82;;;12.70;99.90;;;;;;4986653;28;20224;-70
2023/03/16 10:45:43;;;;;;;0.70;0.70;;;13.00;99.90;;;;;;4984207;28;20306;-70
2023/03/16 10:48:14;;;;;;;0.60;0.50;;;12.50;99.90;;;;;;4983628;28;20686;-70
2023/03/16 10:50:48;;;;;;;0.70;0.70;;;12.60;99.90;;;;;;4985469;28;20226;-70
2023/03/16 10:53:21;;;;;;;1.00;0.85;;;12.40;99.90;;;;;;4986420;28;20220;-70
2023/03/16 10:55:50;;;;;;;0.70;0.70;;;12.50;99.90;;;;;;4983488;28;20217;-69
2023/03/16 10:58:26;;;;;;;1.13;0.82;;;13.00;99.90;;;;;;4983034;28;20693;-69
2023/03/16 11:00:57;;;;;;;0.95;0.85;;;13.20;99.90;;;;;;4974671;28;20207;-69
2023/03/16 11:03:30;;;;;;;0.60;0.55;;;13.50;99.90;;;;;;4976395;28;20297;-67
2023/03/16 11:06:01;;;;;;;0.68;0.50;;;13.70;99.90;;;;;;4974803;28;20682;-69
2023/03/16 11:08:33;;;;;;;0.70;0.50;;;14.00;99.90;;;;;;4974560;28;20226;-70
2023/03/16 11:11:10;;;;;;;0.50;0.40;;;13.80;99.70;;;;;;4974689;28;20465;-70
2023/03/16 11:13:43;;;;;;;0.68;0.65;;;13.60;99.90;;;;;;4974840;28;20673;-69
2023/03/16 11:16:23;;;;;;;0.70;0.70;;;13.70;99.70;;;;;;4974784;28;20217;-70
2023/03/16 11:18:55;;;;;;;0.50;0.40;;;14.00;99.90;;;;;;4974567;28;20230;-69
2023/03/16 11:21:37;;;;;;;0.77;0.70;;;14.30;99.30;;;;;;4974822;28;20438;-70
2023/03/16 11:24:14;;;;;;;0.70;0.57;;;14.50;98.80;;;;;;4968610;28;20210;-69
2023/03/16 11:26:45;;;;;;;0.70;0.60;;;14.90;98.80;;;;;;4973666;28;20241;-70
2023/03/16 11:29:22;;;;;;;0.93;0.77;;;15.20;98.70;;;;;;4975052;28;20277;-68
2023/03/16 11:31:54;;;;;;;0.60;0.40;;;15.30;98.10;;;;;;4973981;28;20312;-69
2023/03/16 11:34:27;;;;;;;1.02;0.93;;;14.80;99.00;;;;;;4982157;28;20260;-69
2023/03/16 11:37:00;;;;;;;0.90;0.70;;;14.70;98.40;;;;;;4986020;28;20824;-69
2023/03/16 11:39:36;;;;;;;1.00;0.70;;;14.50;98.50;;;;;;4985077;28;20321;-69
2023/03/16 11:42:15;;;;;;;0.80;0.80;;;14.30;98.60;;;;;;4982730;28;20245;-70
2023/03/16 11:44:47;;;;;;;1.02;0.93;;;13.80;98.80;;;;;;4984454;28;20305;-71
2023/03/16 11:47:52;;;;;;;0.60;0.50;;;13.50;99.00;;;;;;4985530;28;20205;-69
2023/03/16 11:50:26;;;;;;;0.60;0.40;;;13.60;99.50;;;;;;4985483;28;20249;-69
2023/03/16 11:53:03;;;;;;;0.63;0.50;;;13.60;99.30;;;;;;4985438;28;20202;-70
2023/03/16 11:55:39;;;;;;;1.20;0.80;;;13.70;99.90;;;;;;4984882;28;20661;-70
2023/03/16 11:58:20;;;;;;;0.60;0.47;;;13.60;99.50;;;;;;4981756;28;20226;-69
2023/03/16 12:00:57;;;;;;;0.60;0.50;;;13.80;99.80;;;;;;4975865;28;20684;-69
2023/03/16 12:03:52;;;;;;;0.55;0.40;;;13.80;99.30;;;;;;4973910;28;20305;-69
2023/03/16 12:06:30;;;;;;;1.10;0.82;;;13.50;99.50;;;;;;4977492;28;20207;-69
2023/03/16 12:09:17;;;;;;;1.42;0.98;;;13.50;99.90;;;;;;4981831;28;20257;-69
2023/03/16 12:11:52;;;;;;;0.60;0.50;;;13.30;99.90;;;;;;4983750;28;20741;-70
2023/03/16 12:14:24;;;;;;;1.00;0.73;;;13.40;99.90;;;;;;4985157;28;20220;-70
2023/03/16 12:16:57;;;;;;;0.60;0.40;;;13.30;99.90;;;;;;4981580;28;20683;-69
2023/03/16 12:19:39;;;;;;;0.77;0.60;;;13.20;99.90;;;;;;4981507;28;20257;-69
2023/03/16 12:22:15;;;;;;;0.50;0.40;;;13.30;99.90;;;;;;4981751;28;20249;-70
2023/03/16 12:24:46;;;;;;;0.90;0.60;;;13.30;99.40;;;;;;4981545;28;20214;-69
2023/03/16 12:27:18;;;;;;;0.60;0.55;;;13.20;99.20;;;;;;4981164;28;20238;-70
2023/03/16 12:29:58;;;;;;;0.50;0.40;;;13.30;99.90;;;;;;4983502;28;20677;-70
2023/03/16 12:32:38;;;;;;;0.60;0.57;;;13.50;99.90;;;;;;4977019;28;20297;-70
2023/03/16 12:35:18;;;;;;;0.60;0.40;;;13.80;99.90;;;;;;4974976;28;20202;-70
2023/03/16 12:37:59;;;;;;;0.60;0.60;;;14.00;98.90;;;;;;4983002;28;20244;-70
2023/03/16 12:40:38;;;;;;;0.80;0.60;;;14.20;97.30;;;;;;4984838;28;20226;-70
2023/03/16 12:43:16;;;;;;;0.60;0.40;;;14.80;97.30;;;;;;4974641;28;20201;-70
2023/03/16 12:45:52;;;;;;;0.50;0.40;;;14.70;95.60;;;;;;4982857;28;20217;-70
2023/03/16 12:48:27;;;;;;;0.50;0.40;;;14.90;96.60;;;;;;4984410;28;20248;-70
2023/03/16 12:50:59;;;;;;;0.60;0.50;;;14.80;95.90;;;;;;4981117;28;20301;-69
2023/03/16 12:53:29;;;;;;;0.60;0.45;;;15.50;96.30;;;;;;4981048;28;20214;-69
2023/03/16 12:56:08;;;;;;;0.60;0.40;;;15.80;94.90;;;;;;4981115;28;20585;-70
2023/03/16 12:58:39;;;;;;;0.57;0.45;;;15.80;94.20;;;;;;4981245;28;20234;-70
2023/03/16 13:01:11;;;;;;;0.55;0.38;;;15.60;93.80;;;;;;4973273;28;20506;-70
2023/03/16 13:03:41;;;;;;;0.65;0.52;;;16.00;94.40;;;;;;4973827;28;20206;-70
2023/03/16 13:06:18;;;;;;;0.55;0.40;;;16.10;93.70;;;;;;4984286;28;20210;-70
2023/03/16 13:08:50;;;;;;;3.53;0.50;;;16.50;93.10;;;;;;4981835;28;20253;-70
2023/03/16 13:11:19;;;;;;;1.02;0.80;;;15.80;93.50;;;;;;4980586;28;20672;-70
2023/03/16 13:13:49;;;;;;;0.60;0.43;;;15.00;93.40;;;;;;4982693;28;20210;-70